Poreč, Hrvaška

10:28 AM CET on oktober 26, 2014 (GMT +0100)
Nova Vas Porečka | Change Station
CLOSE
Current Station
Osebne vremenske postaje
Location: Nova Vas, ISTRIA COUNTY
Višina: 436 ft
Nearby Weather Stations

Viš 436 ft 45.26 °N, 13.66 °E | Updated 7 seconds ago

Clear
Jasno
62.4 °F
Feels Like 62.4 °F
N
0.4
Veter Spremenljivo Veter od VJV
Gusts 2.5 mph

Danes
High -- | Low -- °F
--% Chance of Precip.
Yesterday
High -- | Low -- °F
Precip. -- v
6:35 AM 5:02 PM
Naraščajoči krajec, 7% visible
Zračni tlak 30.27 v
Vidljivost -9999.0 milje
Oblaki
Rosišče 38 °F
Vlažnost 41%
Padavine 0.00 v
Snow Depth Not available.
UV 3.0 out of 12
Pollen Not available.
Air Quality Not available.
Flu Activity Not available.
METAR LJPZ 260900Z 25003KT 210V010 CAVOK 14/08 Q1025

More Conditions Fewer Conditions

Zračni tlak 30.27 v
Vidljivost -9999.0 milje
Oblaki
Rosišče 38 °F
Vlažnost 41%
Padavine 0.00 v
Snow Depth Not available.
UV 3.0 out of 12
Pollen Not available.
Air Quality Not available.
Flu Activity Not available.
METAR LJPZ 260900Z 25003KT 210V010 CAVOK 14/08 Q1025

More Conditions Fewer Conditions

10-Day Weather Forecast

Almanac

Astronomija

Oct. 26, 2014 Rise Set
Actual Time 6:35 AM CET 5:02 PM CET
Civil Twilight 6:05 AM CET 5:32 PM CET
Nautical Twilight 5:31 AM CET 6:07 PM CET
Astronomical Twilight 4:56 AM CET 6:41 PM CET
Moon 9:01 AM CET 6:54 PM CET
Length Of Visible Light 11h 27m
Dolžina dneva
10h 26m
Tomorrow will be 2m 55s shorter.
Naraščajoči krajec, 7% of the Moon is Illuminated
Danes
Naraščajoči krajec
Oct 30
Prvo četrtletje
Nov 6
Polna luna (ščip)
Nov 14
Zadnji krajec
Nov 22
New

Yesterday's Extremes

Country Highs Country Lows

Community

WunderPhotos

Upload Photos

1,765,130 photos uploaded!

Nearby

Snow Depth

Not available.

Earthquake Activity

City Distance Mag. Time & Date
No recent earthquake activity has been reported nearby.
Minimum magnitude displayed is 2.5.

Coastal Water Temperatures

Mesto Temperatura
No Stations Reporting

Nearby Weather Stations